Terminal Aerodrome Forecast
Issued by NWS

Home | Current Version | Previous Version | Graphics & Text | Print | Product List | Glossary Off
Versions: 1 2 3 4 5 6 7 8 9 10 11 12 13 14 15 16

000
FTUS43 KICT 232300
TAFHUT
TAF
KHUT 232339Z 2400/2424 19018G24KT P6SM BKN080
     FM240730 20018KT P6SM TSRA BKN030CB
     FM241030 33021G30KT P6SM BKN025
     FM241400 33017G22KT P6SM SCT025 BKN080
     FM242100 32013KT P6SM SKC=

USA.gov is the U.S. government's official web portal to all federal, state and local government web resources and services.